Weather observations for the past three days for
Angel Fire Airport
Imperial (Metric)
Date Time (mdt) Wind (mph) Vis. (mi.) Weather Sky Cond. Temperature (ºF) Relative Humidity Wind Chill (°F) Heat Index (°F) Pressure Precipitation (in)
Air Dwpt 6 hour altimeter (in) sea level (mb) 1 hr 3 hr 6 hr
Max. Min.
05 00:15 N 7 10.00 Fair CLR 47.8 20.1 33% 45 29.99 0.0
04 23:55 N 6 10.00 Fair CLR 48.4 20.1 56.5 48.4 33% 46 29.99 0.0
04 23:35 N 5 10.00 Fair CLR 49.8 19.8 30% 49 29.98 0.0
04 23:15 NW 12 G 25 10.00 Fair CLR 50.9 19.6 29% 29.97 0.0
04 22:55 W 14 G 29 10.00 Fair CLR 50.9 18.3 28% 29.97 0.0
04 22:35 W 20 G 35 10.00 Fair CLR 51.8 16.9 25% 29.95 0.0
04 22:15 W 24 G 35 10.00 Fair and Breezy CLR 51.8 16 24% 29.96 0.0
04 21:55 W 20 G 30 10.00 Fair CLR 52.2 14.9 23% 29.97 0.0
04 21:35 W 20 G 31 10.00 Fair CLR 52 15.3 23% 29.97 0.0
04 21:15 W 21 G 25 10.00 Fair and Breezy CLR 50.9 16.9 26% 29.96 0.0
04 20:55 W 16 G 24 10.00 Fair CLR 51.3 16.7 25% 29.96 0.0
04 20:35 W 15 G 24 10.00 Fair CLR 52.2 15.8 24% 29.97 0.0
04 20:15 W 16 G 24 10.00 Fair CLR 52.2 15.6 23% 29.97 0.0
04 19:55 W 14 G 21 10.00 Fair CLR 52.9 15.1 22% 29.97 0.0
04 19:35 W 16 G 26 10.00 Fair CLR 52.9 14 21% 29.97 0.0
04 19:15 W 18 G 24 10.00 Fair CLR 53.6 13.1 20% 29.97 0.0
04 18:55 W 14 G 26 10.00 Fair CLR 54 13.1 20% 29.97 0.0
04 18:15 SW 25 G 35 10.00 Fair and Breezy CLR 55.4 11.1 17% 29.98 0.0
04 17:55 SW 21 G 31 10.00 Fair and Breezy CLR 56.3 10.4 60.8 56.3 16% 29.99 0.0
04 17:35 W 25 G 35 10.00 Fair and Breezy CLR 56.7 9.9 15% 29.97 0.0
04 17:15 W 25 G 35 10.00 Fair and Breezy CLR 57.6 11.7 16% 29.97 0.0
04 16:55 SW 24 G 38 10.00 Fair and Breezy CLR 57.9 12.6 17% 29.97 0.0
04 16:35 W 23 G 32 10.00 Fair and Breezy CLR 59.5 13.8 16% 29.97 0.0
04 16:15 W 25 G 32 10.00 Fair and Breezy CLR 60.4 15.8 17% 29.97 0.0
04 15:55 W 24 G 32 10.00 Fair and Breezy CLR 60.6 15.8 17% 29.99 0.0
04 15:35 W 22 G 30 10.00 Fair and Breezy CLR 59.2 16.3 19% 29.99 0.0
04 15:15 W 20 G 37 10.00 Fair CLR 59.5 16.9 19% 29.99 0.0
04 14:55 W 21 G 30 10.00 Fair and Breezy CLR 60.3 19.8 21% 29.99 0.0
04 14:35 W 23 G 32 10.00 Fair and Breezy CLR 59.2 23.4 25% 30 0.0
04 14:15 W 26 G 38 10.00 Fair and Windy CLR 59.4 24.1 26% 30 0.0
04 13:55 W 25 G 36 10.00 Fair and Breezy CLR 60.3 25.3 26% 30.01 0.0
04 13:35 W 22 G 31 10.00 Fair and Breezy CLR 60.1 25.9 27% 30.01 0.0
04 13:15 W 25 G 35 10.00 Fair and Breezy CLR 59.7 26.8 28% 30.01 0.0
04 12:55 W 23 G 37 10.00 Fair and Breezy CLR 58.3 27 30% 30.02 0.0
04 12:35 W 28 G 35 10.00 Fair and Windy CLR 59 27 29% 30.02 0.0
04 12:15 W 24 G 36 10.00 Fair and Breezy CLR 57.4 28.9 34% 30.03 0.0
04 11:55 W 18 G 33 10.00 Fair CLR 56.1 32.2 56.3 34.7 40% 30.04 0.0
04 11:35 W 23 G 33 10.00 Fair and Breezy CLR 55.9 31.6 40% 30.05 0.0
04 11:15 W 18 G 30 10.00 Fair CLR 55.4 32 41% 30.05 0.0
04 10:55 W 21 G 35 10.00 Fair and Breezy CLR 54.3 32 43% 30.06 0.0
04 10:35 W 22 G 31 10.00 Fair and Breezy CLR 53.2 32.4 45% 30.06 0.0
04 10:15 W 23 G 30 10.00 Fair and Breezy CLR 52.9 31.8 45% 30.07 0.0
04 09:55 W 22 G 33 10.00 Fair and Breezy CLR 52.7 32 45% 30.08 0.0
04 09:35 W 18 G 26 10.00 Fair CLR 52.7 32.7 47% 30.08 0.0
04 09:15 W 17 G 25 10.00 Fair CLR 51.6 33.3 50% 30.08 0.0
04 08:55 W 17 G 24 10.00 Fair CLR 50.7 32.9 51% 30.09 0.0
04 08:35 W 13 G 21 10.00 Fair CLR 49.3 33.6 55% 45 30.09 0.0
04 08:15 W 16 G 23 10.00 Fair CLR 47.8 33.4 58% 42 30.08 0.0
04 07:55 W 14 10.00 Fair CLR 46.6 33.4 60% 41 30.1 0.0
04 07:35 Calm 10.00 Fair CLR 38.8 33.6 82% 30.09 0.0
04 07:15 Calm 10.00 Fair CLR 37.2 32.5 83% 30.09 0.0
04 06:55 Calm 10.00 Partly Cloudy SCT070 34.7 32 90% 30.09 0.0
04 06:35 SW 3 10.00 Fair CLR 34.9 31.5 87% 30.08 0.0
04 06:15 Calm 10.00 Fair CLR 35.6 31.8 86% 30.08 0.0
04 05:55 Calm 10.00 Fair CLR 35.2 31.6 49.3 34.5 87% 30.07 0.0
04 05:35 SE 5 10.00 Fair CLR 35.6 31.8 86% 32 30.08 0.0
04 05:15 Calm 10.00 Fair CLR 37.4 31.6 80% 30.08 0.0
04 04:55 Calm 10.00 Fair CLR 40.5 32.2 72% 30.09 0.0
04 04:35 Calm 10.00 Fair CLR 40.6 32 71% 30.09 0.0
04 04:15 E 5 10.00 Fair CLR 42.3 32.5 69% 40 30.1 0.0
04 03:55 W 12 10.00 Light Drizzle SCT019 SCT047 BKN060 40.3 33.6 77% 34 30.09 0.0
04 03:35 Calm 10.00 Mostly Cloudy SCT038 BKN047 BKN060 40.3 34.3 79% 30.11 0.0
04 03:15 N 6 10.00 Overcast SCT032 BKN055 OVC075 41.9 34.3 75% 39 30.11 0.0
04 02:55 NE 3 10.00 Light Rain SCT031 BKN085 OVC100 41.9 33.6 73% 30.1 0.0
04 02:35 N 7 10.00 Overcast SCT041 BKN060 OVC095 40.3 34.2 79% 36 30.11 0.0
04 02:15 N 3 10.00 Overcast SCT031 BKN060 OVC080 41.7 34.2 75% 30.13 0.0
04 01:55 NW 12 G 25 10.00 Drizzle SCT005 BKN032 OVC040 44.4 32.7 64% 39 30.15 0.0
04 01:35 W 26 G 39 10.00 Light Rain and Windy SCT031 BKN046 OVC090 46.8 30.7 54% 39 30.15 0.0
04 01:15 W 23 G 37 10.00 Rain and Breezy SCT033 SCT039 BKN050 48.4 28.9 47% 41 30.13 0.0
04 00:55 W 20 G 25 10.00 Partly Cloudy SCT070 48.4 28.2 46% 42 30.12 0.0
04 00:35 W 12 G 21 10.00 Partly Cloudy SCT085 48.4 26.8 43% 44 30.11 0.0
04 00:15 W 12 10.00 Fair CLR 47.8 25.9 42% 43 30.11 0.0
03 23:55 W 5 10.00 Fair CLR 43 23.9 59.9 38.5 47% 41 30.11 0.0
03 23:35 W 9 10.00 Fair CLR 41.2 23.9 50% 36 30.11 0.0
03 23:15 Calm 10.00 Fair CLR 40.6 25.5 55% 30.11 0.0
03 22:55 Calm 10.00 Fair CLR 45.9 23 41% 30.11 0.0
03 22:35 W 3 10.00 Fair CLR 44.8 22.6 42% 30.11 0.0
03 22:15 Calm 10.00 Fair CLR 44.8 23.5 43% 30.11 0.0
03 21:55 Calm 10.00 Fair CLR 43.9 23.7 45% 30.11 0.0
03 21:35 Calm 10.00 Fair CLR 47.1 23 39% 30.11 0.0
03 21:15 N 7 10.00 Fair CLR 44.8 24.4 45% 41 30.1 0.0
03 20:55 N 5 10.00 Fair CLR 45.9 24.3 43% 44 30.1 0.0
03 20:35 Calm 10.00 Fair CLR 46.4 25 43% 30.1 0.0
03 20:15 Calm 10.00 Fair CLR 51.3 21 30% 30.09 0.0
03 19:55 SW 6 10.00 Fair CLR 52.3 20.5 29% 30.08 0.0
03 19:35 W 6 10.00 Fair CLR 52.5 20.5 28% 30.08 0.0
03 19:15 W 8 10.00 Fair CLR 55.2 20.3 26% 30.08 0.0
03 18:55 SW 10 10.00 Partly Cloudy SCT095 56.7 20.5 24% 30.08 0.0
03 18:35 W 12 10.00 Partly Cloudy SCT095 SCT110 59 20.7 23% 30.08 0.0
03 18:15 W 6 10.00 Partly Cloudy SCT095 59.4 19.6 21% 30.08 0.0
03 17:55 W 13 G 21 10.00 Partly Cloudy SCT095 59.2 19.2 61.5 55.2 21% 30.09 0.0
03 17:35 W 12 G 22 10.00 Mostly Cloudy BKN095 60.4 18.3 19% 30.09 0.0
03 17:15 W 16 G 20 10.00 Partly Cloudy SCT095 61.5 18.7 19% 30.1 0.0
03 16:35 W 10 G 20 10.00 Partly Cloudy SCT100 59.2 16.5 19% 30.1 0.0
03 16:15 W 16 G 23 10.00 Partly Cloudy SCT100 60.8 17.6 19% 30.12 0.0
03 15:55 W 16 G 20 10.00 Partly Cloudy SCT100 59.5 19 21% 30.12 0.0
03 15:35 W 12 G 23 10.00 Fair CLR 60.1 20.8 22% 30.14 0.0
03 15:15 W 13 G 21 10.00 Fair CLR 58.1 20.1 23% 30.14 0.0
03 14:55 W 18 G 26 10.00 Fair CLR 59.4 20.8 22% 30.15 0.0
03 14:35 SW 14 G 20 10.00 Fair CLR 60.1 21.9 23% 30.16 0.0
03 14:15 W 7 G 24 10.00 Fair CLR 58.6 21.7 24% 30.17 0.0
03 13:55 SW 14 10.00 Fair CLR 59 21.2 23% 30.19 0.0
03 13:35 W 10 G 21 10.00 Fair CLR 58.5 21 23% 30.19 0.0
03 13:15 W 12 G 21 10.00 Fair CLR 57.7 15.4 19% 30.2 0.0
03 12:55 SW 14 G 20 10.00 Fair CLR 57.7 16.5 20% 30.2 0.0
03 12:35 W 14 G 18 10.00 Fair CLR 57.2 13.6 18% 30.22 0.0
03 12:15 SW 14 10.00 Fair CLR 56.7 14.4 19% 30.23 0.0
03 11:55 W 7 G 21 10.00 Fair CLR 55.6 12.6 56.3 21 18% 30.24 0.0
03 11:35 W 14 G 24 10.00 Fair CLR 55.8 14.5 19% 30.25 0.0
03 11:15 W 17 10.00 Fair CLR 54.5 12.4 19% 30.25 0.0
03 10:55 W 10 10.00 Fair CLR 54.9 18.3 24% 30.26 0.0
03 10:35 W 5 10.00 Fair CLR 52.3 24.8 34% 30.26 0.0
03 10:15 SE 3 10.00 Fair CLR 50.5 28.9 43% 30.27 0.0
03 09:55 Calm 10.00 Fair CLR 48 29.3 48% 30.26 0.0
03 09:35 Calm 10.00 Fair CLR 46.4 30.4 54% 30.27 0.0
03 09:15 NE 3 10.00 Fair CLR 43 32.2 66% 30.29 0.0
03 08:55 Calm 10.00 Fair CLR 39.4 29.7 68% 30.3 0.0
03 08:35 N 3 10.00 Fair CLR 37.4 29.3 73% 30.3 0.0
03 08:15 Calm 10.00 Fair CLR 34.7 28.9 80% 30.31 0.0
03 07:55 Calm 10.00 Fair CLR 32.5 27.9 83% 30.31 0.0
03 07:35 Calm 10.00 Fair CLR 30.9 26.8 85% 30.31 0.0
03 07:15 Calm 10.00 Fair CLR 28.8 26.2 90% 30.31 0.0
03 06:55 Calm 10.00 Fair CLR 24.3 22.5 93% 30.31 0.0
03 06:35 Calm 10.00 Fair CLR 21.9 19.9 92% 30.31 0.0
03 06:15 Calm 10.00 Fair CLR 22.1 20.3 93% 30.3 0.0
03 05:55 Calm 10.00 Fair CLR 21.2 18.9 30 21 91% 30.29 0.0
03 05:35 Calm 10.00 Fair CLR 22.5 19.4 88% 30.29 0.0
03 05:15 Calm 10.00 Fair CLR 21.6 19 90% 30.29 0.0
03 04:55 Calm 10.00 Fair CLR 22.6 19.2 87% 30.29 0.0
03 04:35 Calm 10.00 Fair CLR 23.9 21.9 92% 30.29 0.0
03 04:15 Calm 10.00 Fair CLR 23.4 19.4 85% 30.29 0.0
03 03:55 Calm 10.00 Fair CLR 22.5 19.8 89% 30.3 0.0
03 03:35 Calm 10.00 Fair CLR 23.4 19.6 85% 30.3 0.0
03 03:15 Calm 10.00 Fair CLR 24.3 20.7 86% 30.3 0.0
03 02:55 Calm 10.00 Fair CLR 24.6 21.7 89% 30.3 0.0
03 02:35 Calm 10.00 Fair CLR 25 21.6 87% 30.3 0.0
03 02:15 Calm 10.00 Fair CLR 25.3 22.1 87% 30.31 0.0
03 01:55 Calm 10.00 Fair CLR 24.3 21.4 89% 30.3 0.0
03 01:35 SE 3 10.00 Fair CLR 24.8 21.6 87% 30.31 0.0
03 01:15 Calm 10.00 Fair CLR 25.5 22.6 89% 30.31 0.0
03 00:55 Calm 10.00 Fair CLR 26.4 23.4 88% 30.31 0.0
03 00:35 Calm 10.00 Fair CLR 26.1 23 88% 30.31 0.0
03 00:15 Calm 10.00 Fair CLR 26.6 21.9 82% 30.31 0.0
02 23:55 Calm 10.00 Fair CLR 29.7 24.8 54.5 26.8 82% 30.31 0.0
02 23:35 Calm 10.00 Fair CLR 28.2 23.4 82% 30.3 0.0
02 23:15 Calm 10.00 Fair CLR 29.5 23.9 80% 30.3 0.0
02 22:55 Calm 10.00 Fair CLR 31.3 23.7 74% 30.3 0.0
02 22:35 Calm 10.00 Fair CLR 30.9 24.8 78% 30.29 0.0
02 22:15 Calm 10.00 Fair CLR 36 24.6 63% 30.29 0.0
02 21:55 Calm 10.00 Fair CLR 35.2 24.6 65% 30.29 0.0
02 21:35 Calm 10.00 Fair CLR 35.2 25 66% 30.28 0.0
02 21:15 Calm 10.00 Fair CLR 36 25.2 65% 30.28 0.0
02 20:55 Calm 10.00 Fair CLR 36.9 25.2 63% 30.27 0.0
02 20:35 S 3 10.00 Fair CLR 38.1 26.1 62% 30.27 0.0
02 20:15 Calm 10.00 Fair CLR 41.5 25.3 53% 30.26 0.0
02 19:55 W 3 10.00 Fair CLR 39.2 27.9 64% 30.25 0.0
02 19:35 Calm 10.00 Partly Cloudy SCT080 SCT090 43.5 27.9 54% 30.25 0.0
02 19:15 W 3 10.00 Overcast BKN080 OVC090 51.4 20.3 29% 30.24 0.0
02 18:55 Calm 10.00 Overcast OVC085 53.2 15.8 23% 30.24 0.0
02 18:35 W 3 10.00 Mostly Cloudy BKN085 53.8 18 24% 30.24 0.0
02 18:15 Calm 10.00 Partly Cloudy SCT075 54 18.5 25% 30.24 0.0
02 17:55 Calm 10.00 Partly Cloudy SCT075 53.6 17.6 54.5 39.4 24% 30.24 0.0
02 17:35 SW 8 10.00 Partly Cloudy SCT075 54.1 20.3 27% 30.25 0.0
02 17:15 S 5 10.00 Partly Cloudy SCT090 53.1 19.9 27% 30.25 0.0
02 16:55 Calm 10.00 Fair CLR 53.2 20.3 27% 30.25 0.0
02 16:35 W 6 10.00 Fair CLR 53.4 22.5 30% 30.26 0.0
02 16:15 S 3 10.00 Fair CLR 53.1 21.2 29% 30.26 0.0
02 15:55 S 6 10.00 Fair CLR 52.3 21.4 30% 30.28 0.0
02 15:35 S 3 10.00 Fair CLR 51.8 24.6 35% 30.29 0.0
02 15:15 E 5 10.00 Fair CLR 51.1 26.4 38% 30.3 0.0
02 14:55 E 3 10.00 Fair CLR 50.2 25.2 38% 30.31 0.0
02 14:35 E 5 10.00 Fair CLR 49.8 25.2 38% 49 30.31 0.0
02 14:15 Calm 10.00 Fair CLR 47.5 25.5 42% 30.32 0.0
02 13:35 SE 5 10.00 Fair CLR 48.2 29.3 48% 47 30.33 0.0
02 13:15 Calm 10.00 Fair CLR 45 26.6 49% 30.33 0.0
02 12:55 Calm 10.00 Fair CLR 44.8 26.8 49% 30.34 0.0
02 12:35 Calm 10.00 Fair CLR 42.8 23.2 46% 30.35 0.0
02 12:15 Calm 10.00 Fair CLR 41.5 25.9 54% 30.35 0.0
02 11:55 Calm 10.00 Fair CLR 39.2 25.7 39.4 28 58% 30.36 0.0
02 11:35 Calm 10.00 Fair CLR 39 28 65% 30.36 0.0
02 11:15 Calm 10.00 Fair CLR 37.6 28.4 70% 30.36 0.0
02 10:55 Calm 10.00 Fair CLR 35.1 26.8 72% 30.36 0.0
02 10:35 Calm 10.00 Fair CLR 34.7 26.2 71% 30.36 0.0
02 10:15 Calm 10.00 Fair CLR 33.1 27 78% 30.36 0.0
02 09:55 Calm 10.00 Fair CLR 32 26.8 81% 30.36 0.0
02 09:35 Calm 10.00 Partly Cloudy SCT006 30.2 26.1 85% 30.36 0.0
02 09:15 Calm 10.00 Overcast OVC006 30.7 25.9 82% 30.36 0.0
02 08:55 Calm 10.00 Overcast OVC006 30.2 25.7 83% 30.36 0.0
02 08:35 Calm 10.00 Overcast OVC006 29.3 25.9 87% 30.36 0.0
02 08:15 Calm 10.00 Overcast OVC006 28.4 25.5 89% 30.36 0.0
02 07:55 Calm 10.00 Overcast OVC006 28.4 25.3 88% 30.36 0.0
02 07:35 Calm 10.00 Overcast OVC006 28.4 25.3 88% 30.36 0.0
02 07:15 Calm 10.00 Overcast OVC006 28.4 25.7 90% 30.35 0.0
02 06:55 Calm 10.00 Overcast OVC004 28.4 26.6 93% 30.34 0.0
02 06:35 Calm 10.00 Overcast OVC004 28 26.4 94% 30.34 0.0
02 06:15 Calm 10.00 Overcast OVC004 28.4 26.6 93% 30.33 0.0
02 05:55 Calm 10.00 Overcast OVC004 28.2 27 32.4 27.9 95% 30.32 0.0
02 05:35 Calm 10.00 Overcast OVC004 27.9 26.6 95% 30.32 0.0
02 05:15 SE 3 10.00 Overcast OVC004 28.2 26.6 94% 30.32 0.0
02 04:55 E 5 10.00 Overcast OVC004 28.4 26.8 94% 24 30.32 0.0
02 04:35 N 3 10.00 Overcast OVC006 28.9 27.1 93% 30.32 0.0
02 04:15 Calm 10.00 Overcast OVC006 28 26.4 94% 30.31 0.0
02 03:55 Calm 10.00 Overcast OVC006 29.3 27.1 92% 30.31 0.0
02 03:35 E 5 10.00 Overcast OVC006 29.3 27.1 92% 25 30.31 0.0
02 03:15 Calm 10.00 Overcast OVC006 30.2 28.4 93% 30.31 0.0
02 02:55 SE 5 10.00 Overcast OVC006 30.2 28.2 92% 26 30.31 0.0
02 02:35 E 3 10.00 Overcast OVC006 30.2 28 92% 30.3 0.0
02 02:15 SE 5 10.00 Overcast OVC006 30.4 28.6 93% 26 30.3 0.0
02 01:55 SE 3 10.00 Overcast OVC006 31.1 29.1 92% 30.3 0.0
02 01:35 SE 3 10.00 Overcast OVC006 32 29.7 91% 30.3 0.0
02 01:15 Calm 10.00 Overcast OVC006 32 30.2 93% 30.29 0.0
02 00:55 Calm 10.00 Overcast OVC006 32 30.2 93% 30.29 0.0
Date Time (mdt) Wind (mph) Vis. (mi.) Weather Sky Cond. Air Dwpt Max. Min. Relative Humidity Wind Chill (°F) Heat Index (°F) altimeter (in) sea level (mb) 1 hr 3 hr 6 hr
6 hour
Temperature (ºF) Pressure Precipitation (in)